createdAt,value
2022-08-08T00:00:52.852Z,1.20
2022-08-08T00:03:13.164Z,1.20
2022-08-08T00:06:16.611Z,1.20
2022-08-08T00:09:22.697Z,1.33
2022-08-08T00:12:06.914Z,1.50
2022-08-08T00:15:00.053Z,1.30
2022-08-08T00:18:01.908Z,1.00
2022-08-08T00:20:29.748Z,1.17
2022-08-08T00:23:06.369Z,1.23
2022-08-08T00:25:51.366Z,1.60
2022-08-08T00:28:35.400Z,1.20
2022-08-08T00:32:15.011Z,2.43
2022-08-08T00:34:49.735Z,1.40
2022-08-08T00:37:48.166Z,1.10
2022-08-08T00:41:12.459Z,1.43
2022-08-08T00:44:01.089Z,1.40
2022-08-08T00:46:57.325Z,1.30
2022-08-08T00:49:58.802Z,1.60
2022-08-08T00:52:48.569Z,1.70
2022-08-08T00:55:18.506Z,1.80
2022-08-08T00:58:39.113Z,1.63
2022-08-08T01:01:15.910Z,1.40
2022-08-08T01:04:05.476Z,1.50
2022-08-08T01:07:00.238Z,1.57
2022-08-08T01:10:06.268Z,1.23
2022-08-08T01:12:44.367Z,1.67
2022-08-08T01:15:43.501Z,3.10
2022-08-08T01:18:25.594Z,1.43
2022-08-08T01:22:10.050Z,1.40
2022-08-08T01:24:57.340Z,1.73
2022-08-08T01:27:33.178Z,1.30
2022-08-08T01:30:10.886Z,1.27
2022-08-08T01:33:16.334Z,1.30
2022-08-08T01:36:01.125Z,1.43
2022-08-08T01:39:03.789Z,3.23
2022-08-08T01:41:34.322Z,1.60
2022-08-08T01:44:10.909Z,2.03
2022-08-08T01:46:38.081Z,1.30
2022-08-08T01:49:37.733Z,2.00
2022-08-08T01:53:05.126Z,1.43
2022-08-08T01:56:28.772Z,1.63
2022-08-08T01:58:48.815Z,2.20
2022-08-08T02:01:36.045Z,1.30
2022-08-08T02:04:18.828Z,1.40
2022-08-08T02:07:04.030Z,1.30
2022-08-08T02:10:03.998Z,1.40
2022-08-08T02:12:57.788Z,1.10
2022-08-08T02:15:25.272Z,1.63
2022-08-08T02:18:10.396Z,1.23
2022-08-08T02:21:18.284Z,1.63
2022-08-08T02:24:06.174Z,1.43
2022-08-08T02:27:01.106Z,1.60
2022-08-08T02:29:54.245Z,1.50
2022-08-08T02:32:26.301Z,1.70
2022-08-08T02:35:10.805Z,1.60
2022-08-08T02:38:10.339Z,1.40
2022-08-08T02:40:55.608Z,1.20
2022-08-08T02:44:42.797Z,1.27
2022-08-08T02:46:58.933Z,1.50
2022-08-08T02:49:53.969Z,1.30
2022-08-08T02:52:51.823Z,1.53
2022-08-08T02:55:39.869Z,1.33
2022-08-08T02:58:18.981Z,1.60
2022-08-08T03:01:17.486Z,1.43
2022-08-08T03:05:02.648Z,1.93
2022-08-08T03:07:58.082Z,1.47
2022-08-08T03:10:53.322Z,1.33
2022-08-08T03:15:57.619Z,1.40
2022-08-08T03:17:07.349Z,1.47
2022-08-08T03:20:03.477Z,1.50
2022-08-08T03:22:51.060Z,1.30
2022-08-08T03:25:20.484Z,1.37
2022-08-08T03:28:05.013Z,1.50
2022-08-08T03:30:34.734Z,1.70
2022-08-08T03:33:55.647Z,1.20
2022-08-08T03:36:10.212Z,1.60
2022-08-08T03:38:54.075Z,1.50
2022-08-08T03:42:27.322Z,1.70
2022-08-08T03:44:25.341Z,1.40
2022-08-08T03:46:53.189Z,1.67
2022-08-08T03:49:58.673Z,1.57
2022-08-08T03:52:14.238Z,1.40
2022-08-08T03:55:02.511Z,1.40
2022-08-08T03:58:32.864Z,1.30
2022-08-08T04:00:21.450Z,1.50
2022-08-08T04:03:00.385Z,1.43
2022-08-08T04:05:29.555Z,1.40
2022-08-08T04:07:58.360Z,1.43
2022-08-08T04:10:32.206Z,1.47
2022-08-08T04:13:00.010Z,1.23
2022-08-08T04:15:30.447Z,1.50
2022-08-08T04:18:05.702Z,1.70
2022-08-08T04:20:32.939Z,1.57
2022-08-08T04:23:03.390Z,1.67
2022-08-08T04:25:38.248Z,1.93
2022-08-08T04:28:35.407Z,1.40
2022-08-08T04:30:55.091Z,1.80
2022-08-08T04:33:22.629Z,1.70
2022-08-08T04:35:51.209Z,2.80
2022-08-08T04:38:21.094Z,1.40
2022-08-08T04:40:53.484Z,1.47
2022-08-08T04:43:31.720Z,2.27
2022-08-08T04:46:10.328Z,1.30
2022-08-08T04:48:37.564Z,1.63
2022-08-08T04:51:05.719Z,1.30
2022-08-08T04:54:36.619Z,1.70
2022-08-08T04:56:20.233Z,1.73
2022-08-08T04:58:48.442Z,1.77
2022-08-08T05:01:18.147Z,1.50
2022-08-08T05:04:10.408Z,1.80
2022-08-08T05:06:32.852Z,1.40
2022-08-08T05:09:06.003Z,1.57
2022-08-08T05:11:38.837Z,1.57
2022-08-08T05:14:07.706Z,1.30
2022-08-08T05:16:53.642Z,1.53
2022-08-08T05:20:09.081Z,1.47
2022-08-08T05:22:10.991Z,1.50
2022-08-08T05:24:38.919Z,1.37
2022-08-08T05:27:07.801Z,1.73
2022-08-08T05:29:35.843Z,1.70
2022-08-08T05:32:06.428Z,1.57
2022-08-08T05:34:40.805Z,1.60
2022-08-08T05:37:17.245Z,1.60
2022-08-08T05:39:53.155Z,1.47
2022-08-08T05:42:28.288Z,1.20
2022-08-08T05:45:10.185Z,1.50
2022-08-08T05:48:00.192Z,1.50
2022-08-08T05:50:33.661Z,1.20
2022-08-08T05:53:54.516Z,1.67
2022-08-08T05:56:08.292Z,1.70
2022-08-08T05:58:57.721Z,1.27
2022-08-08T06:01:51.230Z,1.30
2022-08-08T06:04:23.432Z,1.40
2022-08-08T06:06:56.593Z,1.80
2022-08-08T06:10:00.577Z,1.30
2022-08-08T06:12:30.237Z,1.20
2022-08-08T06:15:01.192Z,1.17
2022-08-08T06:17:51.103Z,1.03
2022-08-08T06:20:22.979Z,1.53
2022-08-08T06:22:52.945Z,1.73
2022-08-08T06:26:34.952Z,1.23
2022-08-08T06:28:17.371Z,1.53
2022-08-08T06:30:51.312Z,1.03
2022-08-08T06:33:37.089Z,1.00
2022-08-08T06:36:12.881Z,1.30
2022-08-08T06:38:45.916Z,1.40
2022-08-08T06:41:17.536Z,1.40
2022-08-08T06:43:47.609Z,1.10
2022-08-08T06:46:24.450Z,1.37
2022-08-08T06:48:51.680Z,1.33
2022-08-08T06:51:20.625Z,1.00
2022-08-08T06:53:50.781Z,1.40
2022-08-08T06:56:24.319Z,1.40
2022-08-08T06:58:51.626Z,1.97
2022-08-08T07:02:17.446Z,1.13
2022-08-08T07:04:39.801Z,1.00
2022-08-08T07:06:59.561Z,1.10
2022-08-08T07:09:45.238Z,0.90
2022-08-08T07:12:24.748Z,2.40
2022-08-08T07:15:19.619Z,1.20
2022-08-08T07:18:35.753Z,1.10
2022-08-08T07:20:53.464Z,0.87
2022-08-08T07:23:57.446Z,1.93
2022-08-08T07:26:21.580Z,0.90
2022-08-08T07:28:57.890Z,1.00
2022-08-08T07:31:35.437Z,0.97
2022-08-08T07:34:08.654Z,1.40
2022-08-08T07:36:48.295Z,1.10
2022-08-08T07:39:29.689Z,1.10
2022-08-08T07:42:13.699Z,1.30
2022-08-08T07:44:48.018Z,1.23
2022-08-08T07:47:18.593Z,1.70
2022-08-08T07:49:57.488Z,1.17
2022-08-08T07:52:27.124Z,0.80
2022-08-08T07:55:05.375Z,1.03
2022-08-08T07:58:06.920Z,1.10
2022-08-08T08:00:46.897Z,0.83
2022-08-08T08:03:23.828Z,0.87
2022-08-08T08:05:53.279Z,1.23
2022-08-08T08:08:26.410Z,1.07
2022-08-08T08:10:57.184Z,0.80
2022-08-08T08:13:42.541Z,1.17
2022-08-08T08:16:26.883Z,0.70
2022-08-08T08:18:56.532Z,0.80
2022-08-08T08:21:44.098Z,0.80
2022-08-08T08:24:15.904Z,0.80
2022-08-08T08:26:46.783Z,1.00
2022-08-08T08:29:19.894Z,1.10
2022-08-08T08:31:54.179Z,0.90
2022-08-08T08:34:32.125Z,0.80
2022-08-08T08:37:07.749Z,1.33
2022-08-08T08:39:39.146Z,1.00
2022-08-08T08:42:31.644Z,1.00
2022-08-08T08:45:21.885Z,0.77
2022-08-08T08:47:53.217Z,0.60
2022-08-08T08:50:32.620Z,1.17
2022-08-08T08:53:55.068Z,0.80
2022-08-08T08:56:01.487Z,0.80
2022-08-08T08:58:37.994Z,1.10
2022-08-08T09:01:09.838Z,1.10
2022-08-08T09:03:46.111Z,0.77
2022-08-08T09:06:28.433Z,1.23
2022-08-08T09:09:26.040Z,0.90
2022-08-08T09:12:07.876Z,0.87
2022-08-08T09:14:35.724Z,1.10
2022-08-08T09:17:15.704Z,0.90
2022-08-08T09:21:59.988Z,0.80
2022-08-08T09:22:34.587Z,0.70
2022-08-08T09:25:01.970Z,1.43
2022-08-08T09:27:41.781Z,0.50
2022-08-08T09:30:20.164Z,0.90
2022-08-08T09:33:12.090Z,0.70
2022-08-08T09:35:49.621Z,0.60
2022-08-08T09:38:52.869Z,0.90
2022-08-08T09:41:33.396Z,1.17
2022-08-08T09:44:18.870Z,0.60
2022-08-08T09:47:05.549Z,0.70
2022-08-08T09:49:50.012Z,0.80
2022-08-08T09:53:05.776Z,0.70
2022-08-08T09:55:12.831Z,0.60
2022-08-08T09:57:55.804Z,0.60
2022-08-08T10:00:53.655Z,0.70
2022-08-08T10:03:20.148Z,0.63
2022-08-08T10:05:47.676Z,0.57
2022-08-08T10:08:17.131Z,0.50
2022-08-08T10:10:50.170Z,0.77
2022-08-08T10:13:32.081Z,0.70
2022-08-08T10:16:02.029Z,0.50
2022-08-08T10:18:35.522Z,0.70
2022-08-08T10:21:22.528Z,0.60
2022-08-08T10:23:58.691Z,0.70
2022-08-08T10:26:57.115Z,0.93
2022-08-08T10:30:03.887Z,0.70
2022-08-08T10:32:32.569Z,0.63
2022-08-08T10:35:20.377Z,0.60
2022-08-08T10:38:05.923Z,1.35
2022-08-08T10:40:38.394Z,0.80
2022-08-08T10:43:06.391Z,0.83
2022-08-08T10:45:55.625Z,0.90
2022-08-08T10:48:57.530Z,0.80
2022-08-08T10:51:31.679Z,0.60
2022-08-08T10:54:21.230Z,0.60
2022-08-08T10:57:04.643Z,0.50
2022-08-08T10:59:39.317Z,0.50
2022-08-08T11:02:08.188Z,0.73
2022-08-08T11:04:53.122Z,0.70
2022-08-08T11:08:31.866Z,0.60
2022-08-08T11:10:28.976Z,0.87
2022-08-08T11:13:25.503Z,0.50
2022-08-08T11:15:58.715Z,0.70
2022-08-08T11:18:30.425Z,0.60
2022-08-08T11:21:00.348Z,0.67
2022-08-08T11:23:34.151Z,0.80
2022-08-08T11:26:05.427Z,0.80
2022-08-08T11:28:38.638Z,0.60
2022-08-08T11:31:09.652Z,0.50
2022-08-08T11:33:51.780Z,0.47
2022-08-08T11:36:28.978Z,0.60
2022-08-08T11:38:56.897Z,0.67
2022-08-08T11:41:27.571Z,0.50
2022-08-08T11:43:57.854Z,0.70
2022-08-08T11:46:26.693Z,0.90
2022-08-08T11:48:55.743Z,0.53
2022-08-08T11:51:38.165Z,0.73
2022-08-08T11:54:26.949Z,0.60
2022-08-08T11:56:58.293Z,0.70
2022-08-08T12:00:00.497Z,1.33
2022-08-08T12:02:32.297Z,0.70
2022-08-08T12:05:12.295Z,0.80
2022-08-08T12:07:46.705Z,0.53
2022-08-08T12:10:18.223Z,0.70
2022-08-08T12:12:48.645Z,0.60
2022-08-08T12:15:42.954Z,0.50
2022-08-08T12:18:27.622Z,0.40
2022-08-08T12:20:58.835Z,0.70
2022-08-08T12:23:43.266Z,0.50
2022-08-08T12:26:27.485Z,0.60
2022-08-08T12:29:02.741Z,0.53
2022-08-08T12:31:39.109Z,0.60
2022-08-08T12:34:20.373Z,0.50
2022-08-08T12:37:08.271Z,0.70
2022-08-08T12:40:01.478Z,0.50
2022-08-08T12:42:32.760Z,0.60
2022-08-08T12:45:59.556Z,0.60
2022-08-08T12:48:09.782Z,0.60
2022-08-08T12:50:50.006Z,0.50
2022-08-08T12:53:30.038Z,0.50
2022-08-08T12:56:18.202Z,0.60
2022-08-08T12:58:52.100Z,0.70
2022-08-08T13:01:28.846Z,0.60
2022-08-08T13:04:18.352Z,0.50
2022-08-08T13:07:00.683Z,0.60
2022-08-08T13:09:43.336Z,0.70
2022-08-08T13:12:29.303Z,0.50
2022-08-08T13:14:58.206Z,0.60
2022-08-08T13:18:09.885Z,0.70
2022-08-08T13:20:18.395Z,0.50
2022-08-08T13:22:46.257Z,0.53
2022-08-08T13:25:21.251Z,0.60
2022-08-08T13:27:54.644Z,0.50
2022-08-08T13:30:26.576Z,0.97
2022-08-08T13:32:57.215Z,0.50
2022-08-08T13:35:29.758Z,1.13
2022-08-08T13:38:08.671Z,0.40
2022-08-08T13:40:41.708Z,0.60
2022-08-08T13:43:12.705Z,0.57
2022-08-08T13:45:40.969Z,0.73
2022-08-08T13:48:15.960Z,0.70
2022-08-08T13:50:51.994Z,0.60
2022-08-08T13:53:36.125Z,0.60
2022-08-08T13:56:11.552Z,0.50
2022-08-08T13:58:56.247Z,0.77
2022-08-08T14:01:52.436Z,0.40
2022-08-08T14:04:21.987Z,0.60
2022-08-08T14:06:49.444Z,0.50
2022-08-08T14:09:24.973Z,0.53
2022-08-08T14:12:00.608Z,0.60
2022-08-08T14:14:42.420Z,0.50
2022-08-08T14:17:11.872Z,0.50
2022-08-08T14:19:57.839Z,0.50
2022-08-08T14:22:43.686Z,0.50
2022-08-08T14:25:15.302Z,0.50
2022-08-08T14:28:00.296Z,0.60
2022-08-08T14:30:34.638Z,0.60
2022-08-08T14:33:02.231Z,0.50
2022-08-08T14:35:41.707Z,0.97
2022-08-08T14:38:33.831Z,0.50
2022-08-08T14:40:59.869Z,0.50
2022-08-08T14:44:02.748Z,0.60
2022-08-08T14:46:34.575Z,0.47
2022-08-08T14:49:09.488Z,0.70
2022-08-08T14:52:07.756Z,0.67
2022-08-08T14:54:48.885Z,0.60
2022-08-08T14:57:16.650Z,0.73
2022-08-08T14:59:50.868Z,0.80
2022-08-08T15:02:23.049Z,0.50
2022-08-08T15:04:53.192Z,0.70
2022-08-08T15:07:24.413Z,0.50
2022-08-08T15:10:09.309Z,0.57
2022-08-08T15:12:37.431Z,0.60
2022-08-08T15:15:06.774Z,0.50
2022-08-08T15:17:36.786Z,1.43
2022-08-08T15:20:06.733Z,0.50
2022-08-08T15:22:38.709Z,0.60
2022-08-08T15:25:17.829Z,0.73
2022-08-08T15:28:03.932Z,0.53
2022-08-08T15:30:43.369Z,0.50
2022-08-08T15:33:20.738Z,0.40
2022-08-08T15:35:48.089Z,0.50
2022-08-08T15:38:17.339Z,0.40
2022-08-08T15:40:46.404Z,2.67
2022-08-08T15:43:34.975Z,2.13
2022-08-08T15:46:03.590Z,1.00
2022-08-08T15:48:31.088Z,0.37
2022-08-08T15:51:01.599Z,0.60
2022-08-08T15:53:40.580Z,1.43
2022-08-08T15:56:16.865Z,1.23
2022-08-08T15:58:48.447Z,0.40
2022-08-08T16:01:16.741Z,0.50
2022-08-08T16:03:45.950Z,0.40
2022-08-08T16:06:15.446Z,0.53
2022-08-08T16:13:00.567Z,0.50
2022-08-08T16:13:11.564Z,0.50
2022-08-08T16:14:32.363Z,0.57
2022-08-08T16:17:01.022Z,0.53
2022-08-08T16:19:30.276Z,0.70
2022-08-08T16:22:30.229Z,0.50
2022-08-08T16:24:58.591Z,0.50
2022-08-08T16:27:25.843Z,0.50
2022-08-08T16:30:13.076Z,0.50
2022-08-08T16:32:41.953Z,0.57
2022-08-08T16:35:09.649Z,0.50
2022-08-08T16:37:40.400Z,0.53
2022-08-08T16:40:12.342Z,0.40
2022-08-08T16:42:40.455Z,0.60
2022-08-08T16:45:11.606Z,0.87
2022-08-08T16:47:54.968Z,0.60
2022-08-08T16:50:22.169Z,0.40
2022-08-08T16:55:02.583Z,0.60
2022-08-08T16:55:55.573Z,0.80
2022-08-08T16:58:31.692Z,0.67
2022-08-08T17:01:02.159Z,0.40
2022-08-08T17:03:58.994Z,0.70
2022-08-08T17:06:39.522Z,0.63
2022-08-08T17:09:07.433Z,0.77
2022-08-08T17:11:48.607Z,0.60
2022-08-08T17:14:19.906Z,0.50
2022-08-08T17:16:58.356Z,0.83
2022-08-08T17:19:28.895Z,0.60
2022-08-08T17:21:57.041Z,0.50
2022-08-08T17:24:26.982Z,0.50
2022-08-08T17:26:57.917Z,0.50
2022-08-08T17:29:27.454Z,0.50
2022-08-08T17:31:54.744Z,0.50
2022-08-08T17:34:36.122Z,0.67
2022-08-08T17:37:11.088Z,0.50
2022-08-08T17:40:04.100Z,0.60
2022-08-08T17:42:27.665Z,0.77
2022-08-08T17:44:55.291Z,0.50
2022-08-08T17:47:28.261Z,0.50
2022-08-08T17:50:06.477Z,0.60
2022-08-08T17:52:35.644Z,0.70
2022-08-08T17:56:04.169Z,0.80
2022-08-08T17:57:53.548Z,0.67
2022-08-08T18:00:25.857Z,0.53
2022-08-08T18:03:07.774Z,0.47
2022-08-08T18:05:48.064Z,0.50
2022-08-08T18:08:24.657Z,0.60
2022-08-08T18:11:14.699Z,0.67
2022-08-08T18:13:47.354Z,0.57
2022-08-08T18:16:20.615Z,0.50
2022-08-08T18:18:56.390Z,0.50
2022-08-08T18:22:00.109Z,0.60
2022-08-08T18:24:18.994Z,0.67
2022-08-08T18:26:53.839Z,0.50
2022-08-08T18:29:34.059Z,0.60
2022-08-08T18:32:06.542Z,0.50
2022-08-08T18:34:35.584Z,0.50
2022-08-08T18:37:06.691Z,0.67
2022-08-08T18:39:36.620Z,0.53
2022-08-08T18:42:04.357Z,0.50
2022-08-08T18:44:34.822Z,0.50
2022-08-08T18:47:04.002Z,0.60
2022-08-08T18:49:57.367Z,0.60
2022-08-08T18:52:22.892Z,0.60
2022-08-08T18:54:59.162Z,0.70
2022-08-08T18:57:27.640Z,0.60
2022-08-08T19:00:02.735Z,1.13
2022-08-08T19:02:30.178Z,0.50
2022-08-08T19:04:57.610Z,0.97
2022-08-08T19:07:29.706Z,0.60
2022-08-08T19:10:14.238Z,0.60
2022-08-08T19:12:44.819Z,0.67
2022-08-08T19:15:23.520Z,1.00
2022-08-08T19:18:32.217Z,0.70
2022-08-08T19:20:39.798Z,0.67
2022-08-08T19:23:10.737Z,0.63
2022-08-08T19:26:25.059Z,0.60
2022-08-08T19:28:25.616Z,0.70
2022-08-08T19:31:04.222Z,0.90
2022-08-08T19:33:51.755Z,0.97
2022-08-08T19:36:27.527Z,1.00
2022-08-08T19:38:56.164Z,0.70
2022-08-08T19:41:29.379Z,0.87
2022-08-08T19:44:02.876Z,1.13
2022-08-08T19:46:33.714Z,0.97
2022-08-08T19:49:01.292Z,0.83
2022-08-08T19:51:34.443Z,1.57
2022-08-08T19:54:08.551Z,1.20
2022-08-08T19:56:40.714Z,0.67
2022-08-08T19:59:10.414Z,0.80
2022-08-08T20:02:01.893Z,0.90
2022-08-08T20:04:28.065Z,0.70
2022-08-08T20:06:56.743Z,1.90
2022-08-08T20:09:24.312Z,0.70
2022-08-08T20:11:52.936Z,0.70
2022-08-08T20:14:34.098Z,0.90
2022-08-08T20:17:03.042Z,0.77
2022-08-08T20:19:34.574Z,0.80
2022-08-08T20:22:13.087Z,0.80
2022-08-08T20:24:48.340Z,0.70
2022-08-08T20:27:20.472Z,0.87
2022-08-08T20:30:00.363Z,2.80
2022-08-08T20:32:29.684Z,0.80
2022-08-08T20:35:01.582Z,0.73
2022-08-08T20:37:47.053Z,0.90
2022-08-08T20:40:17.144Z,0.90
2022-08-08T20:42:54.720Z,0.90
2022-08-08T20:45:54.679Z,0.87
2022-08-08T20:48:09.709Z,0.80
2022-08-08T20:50:37.046Z,0.70
2022-08-08T20:53:06.877Z,0.80
2022-08-08T20:55:45.230Z,0.70
2022-08-08T20:58:23.256Z,1.03
2022-08-08T21:00:51.156Z,1.80
2022-08-08T21:03:18.402Z,0.90
2022-08-08T21:05:49.314Z,1.23
2022-08-08T21:08:36.673Z,1.00
2022-08-08T21:11:15.549Z,0.90
2022-08-08T21:13:43.589Z,1.00
2022-08-08T21:16:20.565Z,0.87
2022-08-08T21:18:57.501Z,0.83
2022-08-08T21:21:40.268Z,1.10
2022-08-08T21:24:19.495Z,1.10
2022-08-08T21:26:54.480Z,1.03
2022-08-08T21:30:02.593Z,0.90
2022-08-08T21:32:19.185Z,0.80
2022-08-08T21:34:56.916Z,1.00
2022-08-08T21:37:54.467Z,1.17
2022-08-08T21:40:31.477Z,0.90
2022-08-08T21:42:59.229Z,1.50
2022-08-08T21:48:01.377Z,1.07
2022-08-08T21:48:19.875Z,0.90
2022-08-08T21:50:50.296Z,0.90
2022-08-08T21:54:31.997Z,0.80
2022-08-08T21:56:19.084Z,1.00
2022-08-08T21:58:55.070Z,0.90
2022-08-08T22:01:39.264Z,1.00
2022-08-08T22:04:10.580Z,0.97
2022-08-08T22:06:40.589Z,0.90
2022-08-08T22:09:09.562Z,1.03
2022-08-08T22:12:03.067Z,1.10
2022-08-08T22:14:26.770Z,1.00
2022-08-08T22:16:54.496Z,0.90
2022-08-08T22:19:24.094Z,1.10
2022-08-08T22:21:52.911Z,1.00
2022-08-08T22:24:28.333Z,1.10
2022-08-08T22:27:01.857Z,1.00
2022-08-08T22:29:59.395Z,1.00
2022-08-08T22:32:18.154Z,1.10
2022-08-08T22:34:50.808Z,1.10
2022-08-08T22:37:48.838Z,0.83
2022-08-08T22:40:16.553Z,1.67
2022-08-08T22:42:47.101Z,1.03
2022-08-08T22:45:15.786Z,1.10
2022-08-08T22:47:49.058Z,1.20
2022-08-08T22:50:27.203Z,1.20
2022-08-08T22:54:31.341Z,0.90
2022-08-08T22:55:59.231Z,1.60
2022-08-08T22:58:34.651Z,1.07
2022-08-08T23:01:16.686Z,1.10
2022-08-08T23:03:58.838Z,1.10
2022-08-08T23:06:26.856Z,1.60
2022-08-08T23:09:00.010Z,1.10
2022-08-08T23:12:17.425Z,1.00
2022-08-08T23:14:20.665Z,1.10
2022-08-08T23:16:57.439Z,1.20
2022-08-08T23:19:27.356Z,1.37
2022-08-08T23:21:54.583Z,2.80
2022-08-08T23:24:22.240Z,1.30
2022-08-08T23:26:52.956Z,1.40
2022-08-08T23:29:23.380Z,1.20
2022-08-08T23:31:50.598Z,1.23
2022-08-08T23:34:19.630Z,1.50
2022-08-08T23:36:47.774Z,1.27
2022-08-08T23:39:15.642Z,1.10
2022-08-08T23:41:46.862Z,1.20
2022-08-08T23:44:16.889Z,1.27
2022-08-08T23:49:00.924Z,1.33
2022-08-08T23:49:33.500Z,1.10
2022-08-08T23:52:04.633Z,1.17
2022-08-08T23:54:42.511Z,0.90
2022-08-08T23:57:27.677Z,1.27
